sensor_id;sensor_type;location;lat;lon;timestamp;P1;durP1;ratioP1;P2;durP2;ratioP2
3341;SDS011;1684;50.748;6.154;2023-03-08T00:00:50;6.60;;;4.30;;
3341;SDS011;1684;50.748;6.154;2023-03-08T00:03:19;7.33;;;3.73;;
3341;SDS011;1684;50.748;6.154;2023-03-08T00:05:47;7.07;;;3.67;;
3341;SDS011;1684;50.748;6.154;2023-03-08T00:08:15;6.60;;;4.33;;
3341;SDS011;1684;50.748;6.154;2023-03-08T00:10:46;7.93;;;4.10;;
3341;SDS011;1684;50.748;6.154;2023-03-08T00:13:14;4.43;;;2.90;;
3341;SDS011;1684;50.748;6.154;2023-03-08T00:15:42;6.83;;;3.93;;
3341;SDS011;1684;50.748;6.154;2023-03-08T00:18:11;7.53;;;3.37;;
3341;SDS011;1684;50.748;6.154;2023-03-08T00:20:39;6.90;;;3.53;;
3341;SDS011;1684;50.748;6.154;2023-03-08T00:23:07;6.57;;;3.53;;
3341;SDS011;1684;50.748;6.154;2023-03-08T00:25:36;7.53;;;3.70;;
3341;SDS011;1684;50.748;6.154;2023-03-08T00:28:05;5.63;;;3.23;;
3341;SDS011;1684;50.748;6.154;2023-03-08T00:30:34;5.90;;;2.77;;
3341;SDS011;1684;50.748;6.154;2023-03-08T00:33:02;6.50;;;3.20;;
3341;SDS011;1684;50.748;6.154;2023-03-08T00:35:32;7.67;;;3.70;;
3341;SDS011;1684;50.748;6.154;2023-03-08T00:38:00;6.03;;;3.13;;
3341;SDS011;1684;50.748;6.154;2023-03-08T00:40:29;6.37;;;3.70;;
3341;SDS011;1684;50.748;6.154;2023-03-08T00:42:57;5.77;;;3.10;;
3341;SDS011;1684;50.748;6.154;2023-03-08T00:45:26;5.47;;;2.90;;
3341;SDS011;1684;50.748;6.154;2023-03-08T00:47:55;6.50;;;3.27;;
3341;SDS011;1684;50.748;6.154;2023-03-08T00:50:23;6.33;;;3.10;;
3341;SDS011;1684;50.748;6.154;2023-03-08T00:52:52;6.60;;;3.10;;
3341;SDS011;1684;50.748;6.154;2023-03-08T00:55:20;4.90;;;3.00;;
3341;SDS011;1684;50.748;6.154;2023-03-08T00:57:48;5.23;;;2.90;;
3341;SDS011;1684;50.748;6.154;2023-03-08T01:00:17;5.80;;;3.00;;
3341;SDS011;1684;50.748;6.154;2023-03-08T01:02:47;8.80;;;2.77;;
3341;SDS011;1684;50.748;6.154;2023-03-08T01:05:15;6.27;;;3.40;;
3341;SDS011;1684;50.748;6.154;2023-03-08T01:07:44;9.00;;;3.60;;
3341;SDS011;1684;50.748;6.154;2023-03-08T01:10:12;6.27;;;2.77;;
3341;SDS011;1684;50.748;6.154;2023-03-08T01:12:43;5.90;;;2.90;;
3341;SDS011;1684;50.748;6.154;2023-03-08T01:15:11;7.73;;;3.50;;
3341;SDS011;1684;50.748;6.154;2023-03-08T01:17:40;4.90;;;2.73;;
3341;SDS011;1684;50.748;6.154;2023-03-08T01:20:11;9.97;;;3.13;;
3341;SDS011;1684;50.748;6.154;2023-03-08T01:22:40;5.03;;;3.10;;
3341;SDS011;1684;50.748;6.154;2023-03-08T01:25:08;6.13;;;3.20;;
3341;SDS011;1684;50.748;6.154;2023-03-08T01:27:37;5.30;;;2.50;;
3341;SDS011;1684;50.748;6.154;2023-03-08T01:30:05;5.07;;;2.63;;
3341;SDS011;1684;50.748;6.154;2023-03-08T01:32:34;5.60;;;3.10;;
3341;SDS011;1684;50.748;6.154;2023-03-08T01:35:03;5.20;;;2.67;;
3341;SDS011;1684;50.748;6.154;2023-03-08T01:37:32;3.97;;;2.57;;
3341;SDS011;1684;50.748;6.154;2023-03-08T01:40:01;6.23;;;3.00;;
3341;SDS011;1684;50.748;6.154;2023-03-08T01:42:31;5.30;;;2.30;;
3341;SDS011;1684;50.748;6.154;2023-03-08T01:45:00;5.67;;;2.63;;
3341;SDS011;1684;50.748;6.154;2023-03-08T01:47:29;4.83;;;3.23;;
3341;SDS011;1684;50.748;6.154;2023-03-08T01:49:58;6.00;;;3.33;;
3341;SDS011;1684;50.748;6.154;2023-03-08T01:52:29;4.73;;;2.87;;
3341;SDS011;1684;50.748;6.154;2023-03-08T01:55:00;5.50;;;3.33;;
3341;SDS011;1684;50.748;6.154;2023-03-08T01:57:31;6.77;;;3.30;;
3341;SDS011;1684;50.748;6.154;2023-03-08T02:00:04;4.80;;;2.80;;
3341;SDS011;1684;50.748;6.154;2023-03-08T02:02:35;7.67;;;3.63;;
3341;SDS011;1684;50.748;6.154;2023-03-08T02:05:06;7.60;;;3.67;;
3341;SDS011;1684;50.748;6.154;2023-03-08T02:07:35;6.00;;;3.40;;
3341;SDS011;1684;50.748;6.154;2023-03-08T02:10:06;5.37;;;2.97;;
3341;SDS011;1684;50.748;6.154;2023-03-08T02:12:34;8.10;;;3.50;;
3341;SDS011;1684;50.748;6.154;2023-03-08T02:15:04;5.83;;;3.47;;
3341;SDS011;1684;50.748;6.154;2023-03-08T02:17:33;8.63;;;3.87;;
3341;SDS011;1684;50.748;6.154;2023-03-08T02:20:09;5.00;;;2.83;;
3341;SDS011;1684;50.748;6.154;2023-03-08T02:22:41;5.10;;;2.83;;
3341;SDS011;1684;50.748;6.154;2023-03-08T02:25:12;4.73;;;3.10;;
3341;SDS011;1684;50.748;6.154;2023-03-08T02:27:41;6.00;;;3.67;;
3341;SDS011;1684;50.748;6.154;2023-03-08T02:30:10;5.87;;;3.20;;
3341;SDS011;1684;50.748;6.154;2023-03-08T02:32:39;5.70;;;4.00;;
3341;SDS011;1684;50.748;6.154;2023-03-08T02:35:08;6.80;;;4.43;;
3341;SDS011;1684;50.748;6.154;2023-03-08T02:37:36;6.40;;;3.53;;
3341;SDS011;1684;50.748;6.154;2023-03-08T02:40:07;7.77;;;4.80;;
3341;SDS011;1684;50.748;6.154;2023-03-08T02:42:36;7.20;;;5.20;;
3341;SDS011;1684;50.748;6.154;2023-03-08T02:45:05;6.70;;;3.90;;
3341;SDS011;1684;50.748;6.154;2023-03-08T02:47:34;4.80;;;2.87;;
3341;SDS011;1684;50.748;6.154;2023-03-08T02:50:03;5.60;;;2.93;;
3341;SDS011;1684;50.748;6.154;2023-03-08T02:52:31;4.57;;;3.30;;
3341;SDS011;1684;50.748;6.154;2023-03-08T02:55:00;8.63;;;2.83;;
3341;SDS011;1684;50.748;6.154;2023-03-08T02:57:31;4.77;;;2.90;;
3341;SDS011;1684;50.748;6.154;2023-03-08T03:00:01;6.50;;;3.60;;
3341;SDS011;1684;50.748;6.154;2023-03-08T03:02:30;5.17;;;2.77;;
3341;SDS011;1684;50.748;6.154;2023-03-08T03:04:59;6.73;;;3.60;;
3341;SDS011;1684;50.748;6.154;2023-03-08T03:07:27;6.93;;;2.97;;
3341;SDS011;1684;50.748;6.154;2023-03-08T03:09:55;5.07;;;2.80;;
3341;SDS011;1684;50.748;6.154;2023-03-08T03:12:23;4.97;;;2.83;;
3341;SDS011;1684;50.748;6.154;2023-03-08T03:14:53;6.30;;;2.97;;
3341;SDS011;1684;50.748;6.154;2023-03-08T03:17:22;6.97;;;3.70;;
3341;SDS011;1684;50.748;6.154;2023-03-08T03:19:50;5.90;;;3.67;;
3341;SDS011;1684;50.748;6.154;2023-03-08T03:22:19;6.30;;;3.83;;
3341;SDS011;1684;50.748;6.154;2023-03-08T03:24:48;6.70;;;3.00;;
3341;SDS011;1684;50.748;6.154;2023-03-08T03:27:16;7.47;;;4.37;;
3341;SDS011;1684;50.748;6.154;2023-03-08T03:29:45;5.83;;;2.73;;
3341;SDS011;1684;50.748;6.154;2023-03-08T03:32:14;9.40;;;3.33;;
3341;SDS011;1684;50.748;6.154;2023-03-08T03:34:46;6.17;;;3.00;;
3341;SDS011;1684;50.748;6.154;2023-03-08T03:37:14;5.80;;;3.00;;
3341;SDS011;1684;50.748;6.154;2023-03-08T03:39:43;5.87;;;2.90;;
3341;SDS011;1684;50.748;6.154;2023-03-08T03:42:11;6.67;;;4.07;;
3341;SDS011;1684;50.748;6.154;2023-03-08T03:44:39;8.65;;;4.32;;
3341;SDS011;1684;50.748;6.154;2023-03-08T03:47:08;10.23;;;4.13;;
3341;SDS011;1684;50.748;6.154;2023-03-08T03:49:37;6.90;;;3.90;;
3341;SDS011;1684;50.748;6.154;2023-03-08T03:52:06;5.50;;;3.33;;
3341;SDS011;1684;50.748;6.154;2023-03-08T03:54:34;5.83;;;3.03;;
3341;SDS011;1684;50.748;6.154;2023-03-08T03:57:03;6.70;;;3.70;;
3341;SDS011;1684;50.748;6.154;2023-03-08T03:59:31;6.33;;;2.93;;
3341;SDS011;1684;50.748;6.154;2023-03-08T04:02:00;5.60;;;2.63;;
3341;SDS011;1684;50.748;6.154;2023-03-08T04:04:32;4.00;;;2.43;;
3341;SDS011;1684;50.748;6.154;2023-03-08T04:07:01;6.37;;;2.83;;
3341;SDS011;1684;50.748;6.154;2023-03-08T04:09:30;4.03;;;2.50;;
3341;SDS011;1684;50.748;6.154;2023-03-08T04:11:58;5.10;;;2.90;;
3341;SDS011;1684;50.748;6.154;2023-03-08T04:14:31;7.07;;;3.00;;
3341;SDS011;1684;50.748;6.154;2023-03-08T04:16:59;4.87;;;2.57;;
3341;SDS011;1684;50.748;6.154;2023-03-08T04:19:28;4.90;;;3.13;;
3341;SDS011;1684;50.748;6.154;2023-03-08T04:21:57;3.30;;;2.10;;
3341;SDS011;1684;50.748;6.154;2023-03-08T04:24:27;3.70;;;1.80;;
3341;SDS011;1684;50.748;6.154;2023-03-08T04:26:55;6.77;;;2.47;;
3341;SDS011;1684;50.748;6.154;2023-03-08T04:29:23;7.50;;;2.10;;
3341;SDS011;1684;50.748;6.154;2023-03-08T04:31:52;4.67;;;2.10;;
3341;SDS011;1684;50.748;6.154;2023-03-08T04:34:25;4.27;;;2.43;;
3341;SDS011;1684;50.748;6.154;2023-03-08T04:36:53;6.63;;;2.20;;
3341;SDS011;1684;50.748;6.154;2023-03-08T04:39:22;4.13;;;1.90;;
3341;SDS011;1684;50.748;6.154;2023-03-08T04:41:51;4.03;;;2.40;;
3341;SDS011;1684;50.748;6.154;2023-03-08T04:44:20;5.50;;;2.80;;
3341;SDS011;1684;50.748;6.154;2023-03-08T04:46:48;6.80;;;2.63;;
3341;SDS011;1684;50.748;6.154;2023-03-08T04:49:16;4.17;;;2.10;;
3341;SDS011;1684;50.748;6.154;2023-03-08T04:51:45;4.37;;;2.43;;
3341;SDS011;1684;50.748;6.154;2023-03-08T04:54:13;5.60;;;3.13;;
3341;SDS011;1684;50.748;6.154;2023-03-08T04:56:41;5.40;;;2.40;;
3341;SDS011;1684;50.748;6.154;2023-03-08T04:59:11;4.97;;;2.53;;
3341;SDS011;1684;50.748;6.154;2023-03-08T05:01:39;4.80;;;2.60;;
3341;SDS011;1684;50.748;6.154;2023-03-08T05:04:11;3.73;;;2.20;;
3341;SDS011;1684;50.748;6.154;2023-03-08T05:06:39;5.70;;;3.40;;
3341;SDS011;1684;50.748;6.154;2023-03-08T05:09:07;4.93;;;2.83;;
3341;SDS011;1684;50.748;6.154;2023-03-08T05:11:36;7.67;;;2.70;;
3341;SDS011;1684;50.748;6.154;2023-03-08T05:14:05;5.03;;;2.60;;
3341;SDS011;1684;50.748;6.154;2023-03-08T05:16:35;4.80;;;2.40;;
3341;SDS011;1684;50.748;6.154;2023-03-08T05:19:03;4.70;;;2.30;;
3341;SDS011;1684;50.748;6.154;2023-03-08T05:21:32;4.80;;;2.97;;
3341;SDS011;1684;50.748;6.154;2023-03-08T05:24:00;5.80;;;2.83;;
3341;SDS011;1684;50.748;6.154;2023-03-08T05:26:28;5.40;;;2.40;;
3341;SDS011;1684;50.748;6.154;2023-03-08T05:28:59;5.13;;;2.03;;
3341;SDS011;1684;50.748;6.154;2023-03-08T05:31:30;4.03;;;2.30;;
3341;SDS011;1684;50.748;6.154;2023-03-08T05:33:59;4.27;;;2.17;;
3341;SDS011;1684;50.748;6.154;2023-03-08T05:36:28;3.57;;;1.97;;
3341;SDS011;1684;50.748;6.154;2023-03-08T05:38:56;5.10;;;2.20;;
3341;SDS011;1684;50.748;6.154;2023-03-08T05:41:25;3.70;;;2.20;;
3341;SDS011;1684;50.748;6.154;2023-03-08T05:43:54;4.40;;;2.40;;
3341;SDS011;1684;50.748;6.154;2023-03-08T05:46:23;3.70;;;2.07;;
3341;SDS011;1684;50.748;6.154;2023-03-08T05:48:52;4.37;;;2.10;;
3341;SDS011;1684;50.748;6.154;2023-03-08T05:51:21;3.80;;;1.80;;
3341;SDS011;1684;50.748;6.154;2023-03-08T05:53:51;3.50;;;1.87;;
3341;SDS011;1684;50.748;6.154;2023-03-08T05:56:20;4.57;;;2.30;;
3341;SDS011;1684;50.748;6.154;2023-03-08T05:58:49;3.80;;;2.03;;
3341;SDS011;1684;50.748;6.154;2023-03-08T06:01:18;4.40;;;2.67;;
3341;SDS011;1684;50.748;6.154;2023-03-08T06:03:47;4.03;;;1.87;;
3341;SDS011;1684;50.748;6.154;2023-03-08T06:06:16;4.33;;;2.20;;
3341;SDS011;1684;50.748;6.154;2023-03-08T06:08:46;3.93;;;2.27;;
3341;SDS011;1684;50.748;6.154;2023-03-08T06:11:14;4.00;;;2.53;;
3341;SDS011;1684;50.748;6.154;2023-03-08T06:13:43;3.27;;;1.80;;
3341;SDS011;1684;50.748;6.154;2023-03-08T06:16:12;3.10;;;1.73;;
3341;SDS011;1684;50.748;6.154;2023-03-08T06:18:43;3.93;;;2.33;;
3341;SDS011;1684;50.748;6.154;2023-03-08T06:21:14;4.87;;;2.50;;
3341;SDS011;1684;50.748;6.154;2023-03-08T06:23:42;3.73;;;2.13;;
3341;SDS011;1684;50.748;6.154;2023-03-08T06:26:13;3.50;;;1.90;;
3341;SDS011;1684;50.748;6.154;2023-03-08T06:28:41;4.60;;;2.70;;
3341;SDS011;1684;50.748;6.154;2023-03-08T06:31:11;4.57;;;3.03;;
3341;SDS011;1684;50.748;6.154;2023-03-08T06:33:40;4.23;;;2.80;;
3341;SDS011;1684;50.748;6.154;2023-03-08T06:36:09;4.30;;;3.33;;
3341;SDS011;1684;50.748;6.154;2023-03-08T06:38:38;7.33;;;3.50;;
3341;SDS011;1684;50.748;6.154;2023-03-08T06:41:07;5.90;;;3.20;;
3341;SDS011;1684;50.748;6.154;2023-03-08T06:43:37;5.97;;;3.40;;
3341;SDS011;1684;50.748;6.154;2023-03-08T06:46:06;5.90;;;2.60;;
3341;SDS011;1684;50.748;6.154;2023-03-08T06:48:35;6.33;;;2.80;;
3341;SDS011;1684;50.748;6.154;2023-03-08T06:51:04;5.23;;;3.27;;
3341;SDS011;1684;50.748;6.154;2023-03-08T06:53:33;6.17;;;3.07;;
3341;SDS011;1684;50.748;6.154;2023-03-08T06:56:03;6.70;;;4.87;;
3341;SDS011;1684;50.748;6.154;2023-03-08T06:58:32;9.70;;;4.17;;
3341;SDS011;1684;50.748;6.154;2023-03-08T07:01:03;5.43;;;3.07;;
3341;SDS011;1684;50.748;6.154;2023-03-08T07:03:32;6.30;;;3.53;;
3341;SDS011;1684;50.748;6.154;2023-03-08T07:06:01;6.33;;;3.13;;
3341;SDS011;1684;50.748;6.154;2023-03-08T07:08:29;5.30;;;2.87;;
3341;SDS011;1684;50.748;6.154;2023-03-08T07:10:58;4.30;;;2.60;;
3341;SDS011;1684;50.748;6.154;2023-03-08T07:13:26;6.43;;;2.87;;
3341;SDS011;1684;50.748;6.154;2023-03-08T07:15:55;5.90;;;3.17;;
3341;SDS011;1684;50.748;6.154;2023-03-08T07:18:25;6.93;;;4.07;;
3341;SDS011;1684;50.748;6.154;2023-03-08T07:20:54;5.27;;;2.97;;
3341;SDS011;1684;50.748;6.154;2023-03-08T07:23:22;5.50;;;3.50;;
3341;SDS011;1684;50.748;6.154;2023-03-08T07:25:51;6.67;;;3.70;;
3341;SDS011;1684;50.748;6.154;2023-03-08T07:28:19;4.70;;;3.07;;
3341;SDS011;1684;50.748;6.154;2023-03-08T07:30:49;5.57;;;3.53;;
3341;SDS011;1684;50.748;6.154;2023-03-08T07:33:18;6.33;;;4.10;;
3341;SDS011;1684;50.748;6.154;2023-03-08T07:35:48;13.10;;;7.60;;
3341;SDS011;1684;50.748;6.154;2023-03-08T07:38:17;18.90;;;9.80;;
3341;SDS011;1684;50.748;6.154;2023-03-08T07:40:45;12.10;;;6.43;;
3341;SDS011;1684;50.748;6.154;2023-03-08T07:43:20;17.07;;;10.70;;
3341;SDS011;1684;50.748;6.154;2023-03-08T07:45:49;19.77;;;12.23;;
3341;SDS011;1684;50.748;6.154;2023-03-08T07:48:17;14.97;;;8.20;;
3341;SDS011;1684;50.748;6.154;2023-03-08T07:50:46;14.50;;;8.70;;
3341;SDS011;1684;50.748;6.154;2023-03-08T07:53:18;9.40;;;5.07;;
3341;SDS011;1684;50.748;6.154;2023-03-08T07:55:46;10.73;;;5.83;;
3341;SDS011;1684;50.748;6.154;2023-03-08T07:58:14;9.27;;;6.07;;
3341;SDS011;1684;50.748;6.154;2023-03-08T08:00:43;11.40;;;6.40;;
3341;SDS011;1684;50.748;6.154;2023-03-08T08:03:12;10.63;;;6.13;;
3341;SDS011;1684;50.748;6.154;2023-03-08T08:05:40;9.40;;;5.43;;
3341;SDS011;1684;50.748;6.154;2023-03-08T08:08:09;7.77;;;5.47;;
3341;SDS011;1684;50.748;6.154;2023-03-08T08:10:40;10.70;;;4.80;;
3341;SDS011;1684;50.748;6.154;2023-03-08T08:13:08;9.73;;;5.70;;
3341;SDS011;1684;50.748;6.154;2023-03-08T08:15:37;10.50;;;6.50;;
3341;SDS011;1684;50.748;6.154;2023-03-08T08:18:05;11.03;;;6.00;;
3341;SDS011;1684;50.748;6.154;2023-03-08T08:20:33;10.60;;;5.43;;
3341;SDS011;1684;50.748;6.154;2023-03-08T08:23:03;11.17;;;5.67;;
3341;SDS011;1684;50.748;6.154;2023-03-08T08:25:32;10.10;;;6.63;;
3341;SDS011;1684;50.748;6.154;2023-03-08T08:28:01;13.17;;;6.47;;
3341;SDS011;1684;50.748;6.154;2023-03-08T08:30:39;14.57;;;7.20;;
3341;SDS011;1684;50.748;6.154;2023-03-08T08:33:07;9.87;;;5.70;;
3341;SDS011;1684;50.748;6.154;2023-03-08T08:35:38;11.43;;;6.10;;
3341;SDS011;1684;50.748;6.154;2023-03-08T08:38:08;11.30;;;6.93;;
3341;SDS011;1684;50.748;6.154;2023-03-08T08:40:37;10.07;;;5.70;;
3341;SDS011;1684;50.748;6.154;2023-03-08T08:43:06;10.90;;;5.87;;
3341;SDS011;1684;50.748;6.154;2023-03-08T08:45:35;14.00;;;7.00;;
3341;SDS011;1684;50.748;6.154;2023-03-08T08:48:03;11.40;;;5.97;;
3341;SDS011;1684;50.748;6.154;2023-03-08T08:50:31;13.03;;;7.30;;
3341;SDS011;1684;50.748;6.154;2023-03-08T08:53:00;13.87;;;6.83;;
3341;SDS011;1684;50.748;6.154;2023-03-08T08:55:29;13.40;;;7.67;;
3341;SDS011;1684;50.748;6.154;2023-03-08T08:57:59;15.73;;;7.50;;
3341;SDS011;1684;50.748;6.154;2023-03-08T09:00:29;12.07;;;7.47;;
3341;SDS011;1684;50.748;6.154;2023-03-08T09:02:58;14.60;;;8.27;;
3341;SDS011;1684;50.748;6.154;2023-03-08T09:05:26;11.70;;;6.03;;
3341;SDS011;1684;50.748;6.154;2023-03-08T09:07:55;10.97;;;6.50;;
3341;SDS011;1684;50.748;6.154;2023-03-08T09:10:24;9.20;;;5.77;;
3341;SDS011;1684;50.748;6.154;2023-03-08T09:12:53;17.10;;;8.70;;
3341;SDS011;1684;50.748;6.154;2023-03-08T09:15:24;8.37;;;4.80;;
3341;SDS011;1684;50.748;6.154;2023-03-08T09:17:55;13.07;;;6.70;;
3341;SDS011;1684;50.748;6.154;2023-03-08T09:23:02;13.10;;;7.20;;
3341;SDS011;1684;50.748;6.154;2023-03-08T09:25:30;12.83;;;7.00;;
3341;SDS011;1684;50.748;6.154;2023-03-08T09:27:58;11.47;;;7.10;;
3341;SDS011;1684;50.748;6.154;2023-03-08T09:30:26;16.20;;;8.07;;
3341;SDS011;1684;50.748;6.154;2023-03-08T09:32:57;15.27;;;7.20;;
3341;SDS011;1684;50.748;6.154;2023-03-08T09:35:42;11.43;;;6.20;;
3341;SDS011;1684;50.748;6.154;2023-03-08T09:38:11;14.17;;;7.43;;
3341;SDS011;1684;50.748;6.154;2023-03-08T09:40:44;16.47;;;8.50;;
3341;SDS011;1684;50.748;6.154;2023-03-08T09:43:16;15.77;;;8.80;;
3341;SDS011;1684;50.748;6.154;2023-03-08T09:45:50;13.63;;;8.10;;
3341;SDS011;1684;50.748;6.154;2023-03-08T09:48:21;15.57;;;7.70;;
3341;SDS011;1684;50.748;6.154;2023-03-08T09:50:51;12.67;;;7.50;;
3341;SDS011;1684;50.748;6.154;2023-03-08T09:53:22;18.40;;;9.10;;
3341;SDS011;1684;50.748;6.154;2023-03-08T09:55:51;14.17;;;8.77;;
3341;SDS011;1684;50.748;6.154;2023-03-08T09:58:24;14.23;;;8.00;;
3341;SDS011;1684;50.748;6.154;2023-03-08T10:00:55;14.40;;;8.80;;
3341;SDS011;1684;50.748;6.154;2023-03-08T10:03:36;20.03;;;9.00;;
3341;SDS011;1684;50.748;6.154;2023-03-08T10:06:12;16.60;;;8.20;;
3341;SDS011;1684;50.748;6.154;2023-03-08T10:08:47;11.63;;;6.50;;
3341;SDS011;1684;50.748;6.154;2023-03-08T10:11:18;13.97;;;7.50;;
3341;SDS011;1684;50.748;6.154;2023-03-08T10:13:49;13.93;;;6.77;;
3341;SDS011;1684;50.748;6.154;2023-03-08T10:16:18;13.90;;;9.07;;
3341;SDS011;1684;50.748;6.154;2023-03-08T10:18:51;12.40;;;7.07;;
3341;SDS011;1684;50.748;6.154;2023-03-08T10:21:21;19.77;;;8.03;;
3341;SDS011;1684;50.748;6.154;2023-03-08T10:23:51;15.30;;;7.17;;
3341;SDS011;1684;50.748;6.154;2023-03-08T10:26:24;12.03;;;7.13;;
3341;SDS011;1684;50.748;6.154;2023-03-08T10:28:52;16.70;;;8.50;;
3341;SDS011;1684;50.748;6.154;2023-03-08T10:31:22;11.17;;;6.23;;
3341;SDS011;1684;50.748;6.154;2023-03-08T10:34:00;15.00;;;8.60;;
3341;SDS011;1684;50.748;6.154;2023-03-08T10:36:29;12.43;;;5.97;;
3341;SDS011;1684;50.748;6.154;2023-03-08T10:38:58;12.80;;;6.50;;
3341;SDS011;1684;50.748;6.154;2023-03-08T10:41:31;12.40;;;7.60;;
3341;SDS011;1684;50.748;6.154;2023-03-08T10:44:03;15.80;;;8.63;;
3341;SDS011;1684;50.748;6.154;2023-03-08T10:46:32;12.57;;;6.73;;
3341;SDS011;1684;50.748;6.154;2023-03-08T10:49:14;12.47;;;7.87;;
3341;SDS011;1684;50.748;6.154;2023-03-08T10:51:56;13.63;;;8.13;;
3341;SDS011;1684;50.748;6.154;2023-03-08T10:54:24;17.00;;;8.20;;
3341;SDS011;1684;50.748;6.154;2023-03-08T10:56:54;18.63;;;9.40;;
3341;SDS011;1684;50.748;6.154;2023-03-08T10:59:24;12.57;;;7.43;;
3341;SDS011;1684;50.748;6.154;2023-03-08T11:01:59;15.07;;;9.30;;
3341;SDS011;1684;50.748;6.154;2023-03-08T11:04:29;17.17;;;9.10;;
3341;SDS011;1684;50.748;6.154;2023-03-08T11:06:59;14.30;;;8.40;;
3341;SDS011;1684;50.748;6.154;2023-03-08T11:09:36;14.50;;;8.80;;
3341;SDS011;1684;50.748;6.154;2023-03-08T11:12:05;12.30;;;6.93;;
3341;SDS011;1684;50.748;6.154;2023-03-08T11:14:33;13.00;;;7.70;;
3341;SDS011;1684;50.748;6.154;2023-03-08T11:17:04;14.50;;;8.13;;
3341;SDS011;1684;50.748;6.154;2023-03-08T11:19:50;16.03;;;9.00;;
3341;SDS011;1684;50.748;6.154;2023-03-08T11:22:28;17.60;;;9.80;;
3341;SDS011;1684;50.748;6.154;2023-03-08T11:27:55;15.03;;;9.13;;
3341;SDS011;1684;50.748;6.154;2023-03-08T11:30:31;17.60;;;10.20;;
3341;SDS011;1684;50.748;6.154;2023-03-08T11:35:58;17.77;;;9.63;;
3341;SDS011;1684;50.748;6.154;2023-03-08T11:38:29;13.60;;;8.17;;
3341;SDS011;1684;50.748;6.154;2023-03-08T11:41:00;15.70;;;9.07;;
3341;SDS011;1684;50.748;6.154;2023-03-08T11:43:40;16.73;;;9.77;;
3341;SDS011;1684;50.748;6.154;2023-03-08T11:46:14;17.10;;;9.33;;
3341;SDS011;1684;50.748;6.154;2023-03-08T11:48:48;16.30;;;9.10;;
3341;SDS011;1684;50.748;6.154;2023-03-08T11:51:22;16.73;;;9.30;;
3341;SDS011;1684;50.748;6.154;2023-03-08T11:53:54;13.40;;;8.23;;
3341;SDS011;1684;50.748;6.154;2023-03-08T11:56:27;13.97;;;8.27;;
3341;SDS011;1684;50.748;6.154;2023-03-08T11:58:59;12.77;;;6.87;;
3341;SDS011;1684;50.748;6.154;2023-03-08T12:01:31;12.60;;;7.37;;
3341;SDS011;1684;50.748;6.154;2023-03-08T12:04:05;12.53;;;7.33;;
3341;SDS011;1684;50.748;6.154;2023-03-08T12:06:38;15.43;;;7.37;;
3341;SDS011;1684;50.748;6.154;2023-03-08T12:09:07;10.20;;;7.00;;
3341;SDS011;1684;50.748;6.154;2023-03-08T12:11:40;15.33;;;8.00;;
3341;SDS011;1684;50.748;6.154;2023-03-08T12:14:12;14.90;;;7.50;;
3341;SDS011;1684;50.748;6.154;2023-03-08T12:16:44;10.63;;;6.37;;
3341;SDS011;1684;50.748;6.154;2023-03-08T12:19:16;13.40;;;7.50;;
3341;SDS011;1684;50.748;6.154;2023-03-08T12:21:48;10.63;;;6.27;;
3341;SDS011;1684;50.748;6.154;2023-03-08T12:24:23;9.63;;;6.37;;
3341;SDS011;1684;50.748;6.154;2023-03-08T12:26:55;12.17;;;7.30;;
3341;SDS011;1684;50.748;6.154;2023-03-08T12:29:28;15.27;;;7.80;;
3341;SDS011;1684;50.748;6.154;2023-03-08T12:31:58;13.47;;;7.80;;
3341;SDS011;1684;50.748;6.154;2023-03-08T12:34:27;13.20;;;6.50;;
3341;SDS011;1684;50.748;6.154;2023-03-08T12:36:59;13.37;;;8.70;;
3341;SDS011;1684;50.748;6.154;2023-03-08T12:39:28;19.13;;;10.07;;
3341;SDS011;1684;50.748;6.154;2023-03-08T12:41:57;13.67;;;7.23;;
3341;SDS011;1684;50.748;6.154;2023-03-08T12:44:27;14.83;;;8.37;;
3341;SDS011;1684;50.748;6.154;2023-03-08T12:46:57;21.00;;;12.60;;
3341;SDS011;1684;50.748;6.154;2023-03-08T12:49:30;24.07;;;18.23;;
3341;SDS011;1684;50.748;6.154;2023-03-08T12:52:02;12.00;;;7.50;;
3341;SDS011;1684;50.748;6.154;2023-03-08T12:54:32;13.53;;;8.10;;
3341;SDS011;1684;50.748;6.154;2023-03-08T12:57:01;14.23;;;5.80;;
3341;SDS011;1684;50.748;6.154;2023-03-08T12:59:33;8.10;;;5.40;;
3341;SDS011;1684;50.748;6.154;2023-03-08T13:02:15;12.40;;;6.57;;
3341;SDS011;1684;50.748;6.154;2023-03-08T13:04:49;10.80;;;7.23;;
3341;SDS011;1684;50.748;6.154;2023-03-08T13:07:30;12.93;;;8.00;;
3341;SDS011;1684;50.748;6.154;2023-03-08T13:10:02;11.67;;;6.80;;
3341;SDS011;1684;50.748;6.154;2023-03-08T13:12:59;11.80;;;7.87;;
3341;SDS011;1684;50.748;6.154;2023-03-08T13:15:28;18.77;;;9.00;;
3341;SDS011;1684;50.748;6.154;2023-03-08T13:17:58;13.50;;;7.93;;
3341;SDS011;1684;50.748;6.154;2023-03-08T13:20:39;11.93;;;7.83;;
3341;SDS011;1684;50.748;6.154;2023-03-08T13:23:18;13.63;;;6.17;;
3341;SDS011;1684;50.748;6.154;2023-03-08T13:25:53;8.97;;;5.33;;
3341;SDS011;1684;50.748;6.154;2023-03-08T13:28:24;9.67;;;5.53;;
3341;SDS011;1684;50.748;6.154;2023-03-08T13:31:12;9.93;;;4.70;;
3341;SDS011;1684;50.748;6.154;2023-03-08T13:33:44;10.90;;;5.20;;
3341;SDS011;1684;50.748;6.154;2023-03-08T13:36:15;10.00;;;6.90;;
3341;SDS011;1684;50.748;6.154;2023-03-08T13:38:53;13.40;;;7.83;;
3341;SDS011;1684;50.748;6.154;2023-03-08T13:41:29;12.00;;;6.57;;
3341;SDS011;1684;50.748;6.154;2023-03-08T13:44:00;8.97;;;5.10;;
3341;SDS011;1684;50.748;6.154;2023-03-08T13:46:29;15.50;;;7.33;;
3341;SDS011;1684;50.748;6.154;2023-03-08T13:48:57;11.80;;;7.63;;
3341;SDS011;1684;50.748;6.154;2023-03-08T13:51:27;11.80;;;7.73;;
3341;SDS011;1684;50.748;6.154;2023-03-08T13:53:57;13.07;;;7.47;;
3341;SDS011;1684;50.748;6.154;2023-03-08T13:56:26;14.20;;;7.73;;
3341;SDS011;1684;50.748;6.154;2023-03-08T13:58:55;13.70;;;7.50;;
3341;SDS011;1684;50.748;6.154;2023-03-08T14:01:24;13.07;;;8.70;;
3341;SDS011;1684;50.748;6.154;2023-03-08T14:03:53;17.03;;;9.30;;
3341;SDS011;1684;50.748;6.154;2023-03-08T14:06:24;14.80;;;9.87;;
3341;SDS011;1684;50.748;6.154;2023-03-08T14:08:55;11.83;;;7.67;;
3341;SDS011;1684;50.748;6.154;2023-03-08T14:11:28;13.13;;;7.27;;
3341;SDS011;1684;50.748;6.154;2023-03-08T14:13:56;10.60;;;5.83;;
3341;SDS011;1684;50.748;6.154;2023-03-08T14:16:28;9.17;;;5.13;;
3341;SDS011;1684;50.748;6.154;2023-03-08T14:18:59;11.43;;;6.77;;
3341;SDS011;1684;50.748;6.154;2023-03-08T14:21:28;9.60;;;5.90;;
3341;SDS011;1684;50.748;6.154;2023-03-08T14:23:57;11.00;;;6.03;;
3341;SDS011;1684;50.748;6.154;2023-03-08T14:26:29;7.50;;;5.30;;
3341;SDS011;1684;50.748;6.154;2023-03-08T14:29:01;9.47;;;5.23;;
3341;SDS011;1684;50.748;6.154;2023-03-08T14:31:30;12.13;;;7.80;;
3341;SDS011;1684;50.748;6.154;2023-03-08T14:33:59;20.00;;;9.97;;
3341;SDS011;1684;50.748;6.154;2023-03-08T14:36:28;17.37;;;9.70;;
3341;SDS011;1684;50.748;6.154;2023-03-08T14:38:57;15.70;;;9.37;;
3341;SDS011;1684;50.748;6.154;2023-03-08T14:41:32;16.00;;;7.27;;
3341;SDS011;1684;50.748;6.154;2023-03-08T14:44:04;16.27;;;10.10;;
3341;SDS011;1684;50.748;6.154;2023-03-08T14:46:34;15.97;;;9.60;;
3341;SDS011;1684;50.748;6.154;2023-03-08T14:49:03;9.50;;;5.20;;
3341;SDS011;1684;50.748;6.154;2023-03-08T14:51:37;9.63;;;5.47;;
3341;SDS011;1684;50.748;6.154;2023-03-08T14:54:18;10.80;;;6.03;;
3341;SDS011;1684;50.748;6.154;2023-03-08T14:56:48;17.50;;;7.80;;
3341;SDS011;1684;50.748;6.154;2023-03-08T14:59:17;10.80;;;7.27;;
3341;SDS011;1684;50.748;6.154;2023-03-08T15:01:53;16.40;;;6.87;;
3341;SDS011;1684;50.748;6.154;2023-03-08T15:04:22;12.67;;;6.30;;
3341;SDS011;1684;50.748;6.154;2023-03-08T15:06:52;11.70;;;6.70;;
3341;SDS011;1684;50.748;6.154;2023-03-08T15:09:24;11.47;;;7.27;;
3341;SDS011;1684;50.748;6.154;2023-03-08T15:12:01;13.90;;;7.80;;
3341;SDS011;1684;50.748;6.154;2023-03-08T15:14:29;11.00;;;6.57;;
3341;SDS011;1684;50.748;6.154;2023-03-08T15:16:58;15.00;;;8.80;;
3341;SDS011;1684;50.748;6.154;2023-03-08T15:19:26;10.40;;;6.30;;
3341;SDS011;1684;50.748;6.154;2023-03-08T15:21:56;14.67;;;7.83;;
3341;SDS011;1684;50.748;6.154;2023-03-08T15:24:28;17.53;;;9.40;;
3341;SDS011;1684;50.748;6.154;2023-03-08T15:26:57;21.77;;;11.63;;
3341;SDS011;1684;50.748;6.154;2023-03-08T15:29:27;16.03;;;9.33;;
3341;SDS011;1684;50.748;6.154;2023-03-08T15:32:05;27.57;;;15.13;;
3341;SDS011;1684;50.748;6.154;2023-03-08T15:34:34;12.50;;;7.97;;